Time;durP1;ratioP1;P1;durP2;ratioP2;P2;SDS_P1;SDS_P2;PMS_P1;PMS_P2;Temp;Humidity;BMP_temperature;BMP_pressure;BME280_temperature;BME280_humidity;BME280_pressure;Samples;Min_cycle;Max_cycle;Signal;HPM_P1;HPM_P2
2020/12/25 00:02:14;;;;;;;0.50;0.50;;;2.50;99.90;;;;;;4961316;28;20209;-88
2020/12/25 00:04:40;;;;;;;0.50;0.50;;;2.50;99.90;;;;;;4963175;28;20211;-88
2020/12/25 00:07:10;;;;;;;0.50;0.50;;;2.80;99.90;;;;;;4962783;28;20559;-89
2020/12/25 00:09:36;;;;;;;0.50;0.50;;;3.00;99.90;;;;;;4961863;28;20203;-89
2020/12/25 00:12:02;;;;;;;0.50;0.50;;;2.90;99.90;;;;;;4959635;28;20200;-89
2020/12/25 00:14:29;;;;;;;0.50;0.50;;;2.40;99.90;;;;;;4962038;28;20608;-87
2020/12/25 00:16:59;;;;;;;0.50;0.50;;;1.90;99.90;;;;;;4961714;28;20231;-90
2020/12/25 00:19:26;;;;;;;0.47;0.47;;;4.10;99.90;;;;;;4958537;28;20204;-88
2020/12/25 00:21:54;;;;;;;0.50;0.50;;;2.00;99.90;;;;;;4961793;28;20223;-89
2020/12/25 00:24:20;;;;;;;0.50;0.50;;;2.10;99.90;;;;;;4963024;28;20208;-90
2020/12/25 00:27:04;;;;;;;0.50;0.50;;;2.40;99.90;;;;;;4963164;28;20222;-89
2020/12/25 00:29:32;;;;;;;0.50;0.50;;;2.60;99.90;;;;;;4963273;28;20202;-89
2020/12/25 00:32:01;;;;;;;0.50;0.50;;;2.10;99.90;;;;;;4963250;28;20204;-89
2020/12/25 00:34:27;;;;;;;0.50;0.50;;;2.00;99.90;;;;;;4960095;28;20226;-89
2020/12/25 00:36:54;;;;;;;0.50;0.50;;;2.60;99.90;;;;;;4966376;28;20199;-89
2020/12/25 00:39:23;;;;;;;0.50;0.50;;;3.20;99.90;;;;;;4971269;28;20203;-90
2020/12/25 00:41:52;;;;;;;0.50;0.50;;;2.00;99.90;;;;;;4968487;28;20358;-89
2020/12/25 00:44:24;;;;;;;0.50;0.50;;;1.90;99.90;;;;;;4960694;28;20842;-91
2020/12/25 00:46:55;;;;;;;0.50;0.50;;;3.70;99.90;;;;;;4962178;28;20666;-89
2020/12/25 00:49:25;;;;;;;0.50;0.50;;;3.80;99.90;;;;;;4961627;28;20336;-89
2020/12/25 00:51:52;;;;;;;0.50;0.50;;;4.40;99.90;;;;;;4962302;28;20230;-89
2020/12/25 00:54:20;;;;;;;0.50;0.50;;;3.70;99.90;;;;;;4960640;28;20192;-90
2020/12/25 00:56:46;;;;;;;0.50;0.50;;;2.30;99.90;;;;;;4959945;28;20235;-89
2020/12/25 00:59:16;;;;;;;0.50;0.50;;;2.60;99.90;;;;;;4961828;28;20286;-90
2020/12/25 01:01:52;;;;;;;0.50;0.50;;;4.30;99.90;;;;;;4961975;28;20220;-89
2020/12/25 01:04:21;;;;;;;0.50;0.50;;;3.40;99.90;;;;;;4961632;28;20203;-88
2020/12/25 01:06:48;;;;;;;0.50;0.50;;;4.40;99.90;;;;;;4961964;28;20195;-89
2020/12/25 01:09:14;;;;;;;0.50;0.50;;;2.60;99.90;;;;;;4960118;28;20212;-87
2020/12/25 01:11:43;;;;;;;0.50;0.50;;;2.60;99.90;;;;;;4962908;28;20219;-90
2020/12/25 01:14:11;;;;;;;0.50;0.50;;;2.60;99.90;;;;;;4963354;28;20564;-90
2020/12/25 01:16:41;;;;;;;0.50;0.50;;;2.20;99.90;;;;;;4958396;28;20548;-91
2020/12/25 01:19:14;;;;;;;0.50;0.50;;;3.40;99.90;;;;;;4959110;28;20295;-91
2020/12/25 01:21:41;;;;;;;0.50;0.50;;;4.40;99.90;;;;;;4965871;28;20229;-90
2020/12/25 01:24:10;;;;;;;0.50;0.50;;;2.70;99.90;;;;;;4967703;28;20879;-88
2020/12/25 01:26:38;;;;;;;0.50;0.50;;;2.40;99.90;;;;;;4960413;28;20203;-89
2020/12/25 01:29:07;;;;;;;0.50;0.50;;;3.30;99.90;;;;;;4961373;28;20956;-89
2020/12/25 01:31:37;;;;;;;0.50;0.50;;;2.90;99.90;;;;;;4962316;28;20258;-89
2020/12/25 01:34:06;;;;;;;0.50;0.50;;;2.10;99.90;;;;;;4966465;28;20207;-89
2020/12/25 01:36:35;;;;;;;0.50;0.50;;;2.70;99.90;;;;;;4975430;28;20211;-90
2020/12/25 01:39:07;;;;;;;0.50;0.50;;;2.30;99.90;;;;;;4970838;28;20286;-88
2020/12/25 01:41:36;;;;;;;0.50;0.50;;;2.70;99.90;;;;;;4973234;28;20227;-89
2020/12/25 01:44:02;;;;;;;0.50;0.50;;;2.80;99.90;;;;;;4973745;28;20211;-88
2020/12/25 01:46:31;;;;;;;0.50;0.50;;;2.00;99.90;;;;;;4974126;28;20210;-90
2020/12/25 01:49:03;;;;;;;0.50;0.50;;;2.70;99.90;;;;;;4973742;28;20203;-89
2020/12/25 01:51:30;;;;;;;0.50;0.50;;;2.60;99.90;;;;;;4973218;28;20286;-88
2020/12/25 01:54:04;;;;;;;0.50;0.50;;;3.90;99.90;;;;;;4973187;28;20626;-89
2020/12/25 01:56:34;;;;;;;0.50;0.50;;;4.90;99.90;;;;;;4972808;28;20307;-90
2020/12/25 01:59:01;;;;;;;0.50;0.50;;;3.50;99.90;;;;;;4973391;28;20569;-88
2020/12/25 02:01:27;;;;;;;0.50;0.50;;;2.30;99.90;;;;;;4973347;28;20219;-90
2020/12/25 02:03:57;;;;;;;0.50;0.50;;;2.60;99.90;;;;;;4973085;28;20211;-89
2020/12/25 02:06:23;;;;;;;0.50;0.50;;;2.50;99.90;;;;;;4972661;28;20213;-89
2020/12/25 02:08:53;;;;;;;0.50;0.50;;;2.20;99.90;;;;;;4972718;28;20214;-89
2020/12/25 02:11:23;;;;;;;0.50;0.50;;;3.10;99.90;;;;;;4972544;28;20281;-89
2020/12/25 02:13:49;;;;;;;0.40;0.40;;;2.70;99.90;;;;;;4972630;28;20348;-89
2020/12/25 02:16:16;;;;;;;0.50;0.50;;;3.80;99.90;;;;;;4972434;28;20207;-87
2020/12/25 02:18:42;;;;;;;0.50;0.50;;;2.70;99.90;;;;;;4972643;28;20246;-89
2020/12/25 02:21:09;;;;;;;0.50;0.50;;;3.80;99.90;;;;;;4972357;28;20223;-89
2020/12/25 02:23:38;;;;;;;0.40;0.40;;;2.70;99.90;;;;;;4972365;28;20413;-89
2020/12/25 02:26:04;;;;;;;0.50;0.50;;;2.70;99.90;;;;;;4972567;28;20411;-88
2020/12/25 02:28:38;;;;;;;0.50;0.50;;;2.60;99.90;;;;;;4972349;28;20203;-87
2020/12/25 02:31:07;;;;;;;0.45;0.45;;;2.60;99.90;;;;;;4972622;28;20202;-88
2020/12/25 02:33:39;;;;;;;0.50;0.50;;;2.50;99.90;;;;;;4972060;28;20214;-90
2020/12/25 02:36:06;;;;;;;0.45;0.45;;;3.20;99.90;;;;;;4972676;28;20211;-89
2020/12/25 02:38:35;;;;;;;0.45;0.45;;;3.00;99.90;;;;;;4972560;28;20302;-88
2020/12/25 02:41:01;;;;;;;0.50;0.50;;;2.60;99.90;;;;;;4972722;28;20261;-87
2020/12/25 02:43:33;;;;;;;0.50;0.50;;;2.90;99.90;;;;;;4972145;28;20215;-89
2020/12/25 02:46:00;;;;;;;0.40;0.40;;;3.40;99.90;;;;;;4972412;28;20207;-87
2020/12/25 02:48:26;;;;;;;0.50;0.50;;;2.20;99.90;;;;;;4972307;28;20226;-90
2020/12/25 02:50:52;;;;;;;0.50;0.50;;;2.10;99.90;;;;;;4971985;28;20542;-87
2020/12/25 02:53:19;;;;;;;0.50;0.50;;;2.50;99.90;;;;;;4971701;28;20882;-89
2020/12/25 02:55:46;;;;;;;0.50;0.50;;;2.50;99.90;;;;;;4971808;28;20245;-88
2020/12/25 02:58:13;;;;;;;0.50;0.50;;;2.40;99.90;;;;;;4971916;28;20211;-90
2020/12/25 03:00:39;;;;;;;0.40;0.40;;;2.00;99.90;;;;;;4971940;28;20637;-90
2020/12/25 03:03:05;;;;;;;0.50;0.50;;;3.90;99.90;;;;;;4971657;28;20448;-89
2020/12/25 03:05:32;;;;;;;0.40;0.40;;;2.20;99.90;;;;;;4971591;28;20211;-89
2020/12/25 03:07:58;;;;;;;0.50;0.50;;;2.60;99.90;;;;;;4971997;28;20639;-89
2020/12/25 03:10:24;;;;;;;0.50;0.50;;;2.50;99.90;;;;;;4971800;28;20662;-89
2020/12/25 03:12:53;;;;;;;0.50;0.50;;;2.30;99.90;;;;;;4971375;28;20211;-90
2020/12/25 03:15:19;;;;;;;0.47;0.47;;;2.70;99.90;;;;;;4971285;28;20230;-89
2020/12/25 03:17:46;;;;;;;0.45;0.45;;;2.50;99.90;;;;;;4971133;28;20246;-88
2020/12/25 03:20:12;;;;;;;0.50;0.50;;;2.70;99.90;;;;;;4971651;28;20214;-88
2020/12/25 03:22:38;;;;;;;0.50;0.50;;;2.90;99.90;;;;;;4971096;28;20209;-89
2020/12/25 03:25:04;;;;;;;0.50;0.50;;;3.90;99.90;;;;;;4971172;28;20282;-89
2020/12/25 03:27:30;;;;;;;0.50;0.50;;;2.30;99.90;;;;;;4971068;28;20218;-87
2020/12/25 03:29:58;;;;;;;0.40;0.40;;;2.20;99.90;;;;;;4971570;28;20214;-88
2020/12/25 03:32:24;;;;;;;0.40;0.40;;;2.20;99.90;;;;;;4970774;28;20207;-87
2020/12/25 03:34:52;;;;;;;0.50;0.50;;;1.60;99.90;;;;;;4970973;28;20466;-89
2020/12/25 03:37:19;;;;;;;0.50;0.50;;;1.70;99.90;;;;;;4971055;28;20205;-89
2020/12/25 03:39:46;;;;;;;0.43;0.43;;;2.10;99.90;;;;;;4971086;28;20207;-87
2020/12/25 03:42:16;;;;;;;0.50;0.50;;;2.00;99.90;;;;;;4971081;28;20230;-89
2020/12/25 03:44:42;;;;;;;0.50;0.50;;;2.50;99.90;;;;;;4971309;28;20221;-89
2020/12/25 03:47:09;;;;;;;0.45;0.45;;;2.10;99.90;;;;;;4970781;28;20249;-89
2020/12/25 03:49:35;;;;;;;0.50;0.50;;;2.10;99.90;;;;;;4970430;28;20221;-89
2020/12/25 03:52:01;;;;;;;0.50;0.50;;;1.90;99.90;;;;;;4970823;28;20215;-89
2020/12/25 03:54:28;;;;;;;0.50;0.50;;;0.50;99.90;;;;;;4970904;28;20263;-88
2020/12/25 03:56:54;;;;;;;0.50;0.50;;;1.90;99.90;;;;;;4971194;28;20207;-89
2020/12/25 03:59:20;;;;;;;0.50;0.50;;;1.80;99.90;;;;;;4970505;28;20447;-89
2020/12/25 04:01:48;;;;;;;0.47;0.47;;;1.90;99.90;;;;;;4970141;28;20231;-88
2020/12/25 04:04:15;;;;;;;0.50;0.50;;;3.00;99.90;;;;;;4970639;28;20582;-87
2020/12/25 04:06:42;;;;;;;0.50;0.50;;;1.40;99.90;;;;;;4970847;28;20213;-88
2020/12/25 04:09:08;;;;;;;0.50;0.50;;;2.20;99.90;;;;;;4970534;28;20581;-89
2020/12/25 04:11:34;;;;;;;0.50;0.50;;;1.70;99.90;;;;;;4970308;28;20292;-89
2020/12/25 04:14:00;;;;;;;0.47;0.47;;;1.70;99.90;;;;;;4970536;28;20210;-87
2020/12/25 04:16:26;;;;;;;0.50;0.50;;;3.40;99.90;;;;;;4970728;28;20228;-89
2020/12/25 04:18:53;;;;;;;0.50;0.50;;;1.60;99.90;;;;;;4970272;28;20235;-88
2020/12/25 04:21:20;;;;;;;0.50;0.50;;;1.20;99.90;;;;;;4970272;28;20439;-88
2020/12/25 04:23:48;;;;;;;0.40;0.40;;;1.80;99.90;;;;;;4967547;28;20306;-87
2020/12/25 04:26:14;;;;;;;0.40;0.40;;;1.90;99.90;;;;;;4968878;28;20304;-87
2020/12/25 04:28:43;;;;;;;0.43;0.43;;;1.10;99.90;;;;;;4969310;28;20214;-88
2020/12/25 04:31:09;;;;;;;0.50;0.50;;;1.50;99.90;;;;;;4969158;28;20261;-89
2020/12/25 04:33:35;;;;;;;0.50;0.50;;;1.40;99.90;;;;;;4968740;28;20497;-88
2020/12/25 04:36:01;;;;;;;0.50;0.50;;;1.40;99.90;;;;;;4968962;28;20234;-88
2020/12/25 04:38:28;;;;;;;0.50;0.50;;;1.80;99.90;;;;;;4969431;28;20804;-88
2020/12/25 04:40:55;;;;;;;0.47;0.47;;;1.20;99.90;;;;;;4969198;28;20231;-89
2020/12/25 04:43:26;;;;;;;0.50;0.50;;;1.40;99.90;;;;;;4968648;28;20215;-88
2020/12/25 04:45:56;;;;;;;0.50;0.50;;;1.50;99.90;;;;;;4968584;28;20281;-88
2020/12/25 04:48:24;;;;;;;0.45;0.45;;;1.40;99.90;;;;;;4968265;28;20669;-89
2020/12/25 04:50:50;;;;;;;0.40;0.40;;;1.40;99.90;;;;;;4968331;28;20210;-89
2020/12/25 04:53:17;;;;;;;0.50;0.50;;;1.40;99.90;;;;;;4968959;28;20210;-89
2020/12/25 04:55:44;;;;;;;0.50;0.50;;;1.20;99.90;;;;;;4968849;28;20215;-87
2020/12/25 04:58:10;;;;;;;0.50;0.50;;;1.40;99.90;;;;;;4968960;28;20207;-88
2020/12/25 05:00:36;;;;;;;0.45;0.45;;;1.40;99.90;;;;;;4968350;28;20281;-88
2020/12/25 05:03:06;;;;;;;0.40;0.40;;;1.30;99.90;;;;;;4968405;28;20203;-88
2020/12/25 05:05:35;;;;;;;0.50;0.50;;;1.40;99.90;;;;;;4968281;28;20632;-88
2020/12/25 05:08:01;;;;;;;0.50;0.50;;;1.60;99.90;;;;;;4972236;28;20294;-89
2020/12/25 05:10:28;;;;;;;0.50;0.50;;;1.30;99.90;;;;;;4972828;28;20257;-88
2020/12/25 05:12:55;;;;;;;0.50;0.50;;;1.60;99.90;;;;;;4972722;28;20198;-89
2020/12/25 05:15:22;;;;;;;0.50;0.50;;;1.50;99.90;;;;;;4972288;28;20674;-88
2020/12/25 05:17:56;;;;;;;0.47;0.47;;;1.20;99.90;;;;;;4970395;28;20235;-89
2020/12/25 05:20:24;;;;;;;0.47;0.47;;;3.40;99.90;;;;;;4972965;28;20243;-89
2020/12/25 05:22:51;;;;;;;0.50;0.50;;;0.90;99.90;;;;;;4973122;28;20494;-89
2020/12/25 05:25:19;;;;;;;0.50;0.50;;;0.70;99.90;;;;;;4973467;28;20211;-90
2020/12/25 05:27:46;;;;;;;0.50;0.50;;;2.40;99.90;;;;;;4973208;28;20211;-88
2020/12/25 05:30:15;;;;;;;0.50;0.50;;;1.20;99.90;;;;;;4974249;28;20334;-90
2020/12/25 05:32:44;;;;;;;0.50;0.50;;;2.00;99.90;;;;;;4977212;28;20215;-89
2020/12/25 05:35:13;;;;;;;0.50;0.50;;;2.40;99.90;;;;;;4976440;28;20209;-90
2020/12/25 05:37:40;;;;;;;0.50;0.50;;;0.90;99.90;;;;;;4974456;28;20207;-89
2020/12/25 05:40:07;;;;;;;0.50;0.50;;;1.10;99.90;;;;;;4973077;28;20215;-88
2020/12/25 05:42:45;;;;;;;0.50;0.50;;;1.10;99.90;;;;;;4973141;28;20207;-89
2020/12/25 05:45:17;;;;;;;0.50;0.50;;;0.90;99.90;;;;;;4974685;28;20214;-88
2020/12/25 05:47:45;;;;;;;0.50;0.50;;;0.80;99.90;;;;;;4980166;28;20211;-87
2020/12/25 05:50:11;;;;;;;0.50;0.50;;;0.80;99.90;;;;;;4982713;28;20206;-88
2020/12/25 05:52:41;;;;;;;0.50;0.50;;;0.30;99.90;;;;;;4982230;28;20238;-88
2020/12/25 05:55:10;;;;;;;0.50;0.50;;;0.70;99.90;;;;;;4977371;28;20469;-88
2020/12/25 05:57:37;;;;;;;0.45;0.45;;;1.70;99.90;;;;;;4973505;28;20214;-89
2020/12/25 06:00:05;;;;;;;0.50;0.50;;;0.50;99.90;;;;;;4973298;28;20214;-88
2020/12/25 06:02:35;;;;;;;0.50;0.50;;;0.30;99.90;;;;;;4973062;28;20227;-88
2020/12/25 06:05:02;;;;;;;0.50;0.50;;;-0.70;99.90;;;;;;4973226;28;20218;-86
2020/12/25 06:07:29;;;;;;;0.50;0.50;;;0.10;99.90;;;;;;4973526;28;20242;-86
2020/12/25 06:09:59;;;;;;;0.50;0.50;;;0.30;99.90;;;;;;4973307;28;20281;-89
2020/12/25 06:12:37;;;;;;;0.50;0.50;;;0.50;99.90;;;;;;4972984;28;20254;-89
2020/12/25 06:15:04;;;;;;;0.50;0.50;;;0.80;99.90;;;;;;4972789;28;20351;-89
2020/12/25 06:17:36;;;;;;;0.50;0.50;;;0.30;99.90;;;;;;4971676;28;20239;-87
2020/12/25 06:20:04;;;;;;;0.50;0.50;;;0.20;99.90;;;;;;4972460;28;20214;-89
2020/12/25 06:22:34;;;;;;;0.50;0.50;;;0.20;99.90;;;;;;4972170;28;20227;-87
2020/12/25 06:25:02;;;;;;;0.50;0.50;;;0.20;99.90;;;;;;4972695;28;20199;-87
2020/12/25 06:27:29;;;;;;;0.50;0.50;;;0.10;99.90;;;;;;4972830;28;20215;-87
2020/12/25 06:29:56;;;;;;;0.50;0.50;;;0.00;99.90;;;;;;4973035;28;20229;-89
2020/12/25 06:32:24;;;;;;;0.50;0.50;;;2.00;99.90;;;;;;4972443;28;20240;-90
2020/12/25 06:34:53;;;;;;;0.50;0.50;;;0.00;99.90;;;;;;4972232;28;20250;-89
2020/12/25 06:37:19;;;;;;;0.50;0.50;;;0.00;99.90;;;;;;4972195;28;20211;-89
2020/12/25 06:39:50;;;;;;;0.50;0.50;;;0.80;99.90;;;;;;4972286;28;20221;-87
2020/12/25 06:42:29;;;;;;;0.50;0.50;;;0.90;99.90;;;;;;4972056;28;20230;-89
2020/12/25 06:44:57;;;;;;;0.50;0.50;;;-0.10;99.90;;;;;;4972656;28;20214;-89
2020/12/25 06:47:31;;;;;;;0.50;0.50;;;0.10;99.90;;;;;;4972076;28;20203;-89
2020/12/25 06:49:58;;;;;;;0.50;0.50;;;0.00;99.90;;;;;;4972526;28;20252;-88
2020/12/25 06:52:31;;;;;;;0.45;0.45;;;0.10;99.90;;;;;;4972112;28;20221;-87
2020/12/25 06:54:59;;;;;;;0.45;0.45;;;0.00;99.90;;;;;;4972510;28;20207;-87
2020/12/25 06:57:28;;;;;;;0.50;0.50;;;0.00;99.90;;;;;;4972525;28;20203;-88
2020/12/25 06:59:57;;;;;;;0.50;0.50;;;0.00;99.90;;;;;;4972398;28;20218;-88
2020/12/25 07:02:24;;;;;;;0.50;0.50;;;-0.40;99.90;;;;;;4972283;28;20231;-88
2020/12/25 07:04:51;;;;;;;0.50;0.50;;;-0.20;99.90;;;;;;4972006;28;20626;-87
2020/12/25 07:07:20;;;;;;;0.50;0.50;;;0.00;99.90;;;;;;4972066;28;20297;-87
2020/12/25 07:09:49;;;;;;;0.50;0.50;;;-0.10;99.90;;;;;;4972146;28;20649;-86
2020/12/25 07:12:17;;;;;;;0.50;0.50;;;-0.20;99.90;;;;;;4971897;28;20206;-86
2020/12/25 07:14:43;;;;;;;0.50;0.50;;;-0.20;99.90;;;;;;4972305;28;20203;-88
2020/12/25 07:17:10;;;;;;;0.50;0.50;;;-0.10;99.90;;;;;;4972385;28;20235;-87
2020/12/25 07:19:36;;;;;;;0.50;0.50;;;-0.10;99.90;;;;;;4972075;28;20223;-88
2020/12/25 07:22:04;;;;;;;0.50;0.50;;;-0.20;99.90;;;;;;4971822;28;20789;-89
2020/12/25 07:24:32;;;;;;;0.50;0.50;;;-0.20;99.90;;;;;;4971947;28;20210;-87
2020/12/25 07:26:58;;;;;;;0.50;0.50;;;-0.20;99.90;;;;;;4972232;28;20215;-87
2020/12/25 07:29:24;;;;;;;0.50;0.50;;;-0.10;99.90;;;;;;4971670;28;20576;-87
2020/12/25 07:31:52;;;;;;;0.50;0.50;;;-0.30;99.90;;;;;;4971363;28;20245;-89
2020/12/25 07:34:19;;;;;;;0.50;0.50;;;-0.90;99.90;;;;;;4971507;28;20420;-89
2020/12/25 07:36:47;;;;;;;0.50;0.50;;;-0.20;99.90;;;;;;4971422;28;20218;-87
2020/12/25 07:39:14;;;;;;;0.50;0.50;;;-0.30;99.90;;;;;;4971694;28;20219;-87
2020/12/25 07:41:41;;;;;;;0.50;0.50;;;-0.30;99.90;;;;;;4971435;28;20657;-88
2020/12/25 07:44:07;;;;;;;0.40;0.40;;;-0.70;99.90;;;;;;4971282;28;20219;-88
2020/12/25 07:46:34;;;;;;;0.50;0.50;;;-0.40;99.90;;;;;;4971135;28;20401;-88
2020/12/25 07:49:01;;;;;;;0.50;0.50;;;-0.70;99.90;;;;;;4971374;28;20207;-87
2020/12/25 07:51:28;;;;;;;0.50;0.50;;;-1.10;99.90;;;;;;4971794;28;20218;-88
2020/12/25 07:53:55;;;;;;;0.50;0.50;;;-1.10;99.90;;;;;;4971295;28;20199;-88
2020/12/25 07:56:26;;;;;;;0.40;0.40;;;-0.40;99.90;;;;;;4971449;28;20218;-88
2020/12/25 07:58:54;;;;;;;0.50;0.50;;;-0.30;99.90;;;;;;4971092;28;20207;-89
2020/12/25 08:01:21;;;;;;;0.50;0.50;;;-0.60;99.90;;;;;;4970699;28;20718;-88
2020/12/25 08:03:48;;;;;;;0.50;0.50;;;-0.60;99.90;;;;;;4970708;28;20215;-88
2020/12/25 08:06:19;;;;;;;0.50;0.50;;;-1.50;99.90;;;;;;4970991;28;20210;-86
2020/12/25 08:08:48;;;;;;;0.45;0.45;;;-0.50;99.90;;;;;;4970985;28;20214;-87
2020/12/25 08:11:17;;;;;;;0.50;0.50;;;-0.60;99.90;;;;;;4970943;28;20198;-87
2020/12/25 08:13:48;;;;;;;0.50;0.50;;;-1.20;99.90;;;;;;4971039;28;20211;-87
2020/12/25 08:16:15;;;;;;;0.50;0.50;;;0.50;99.90;;;;;;4970863;28;20207;-87
2020/12/25 08:18:42;;;;;;;0.50;0.50;;;-0.60;99.90;;;;;;4970856;28;20262;-88
2020/12/25 08:21:08;;;;;;;0.50;0.50;;;-0.40;99.90;;;;;;4970900;28;20227;-89
2020/12/25 08:23:35;;;;;;;0.50;0.50;;;-0.60;99.90;;;;;;4970642;28;20802;-89
2020/12/25 08:26:06;;;;;;;0.50;0.50;;;-0.50;99.90;;;;;;4970381;28;20195;-87
2020/12/25 08:28:32;;;;;;;0.50;0.50;;;-0.60;99.90;;;;;;4970525;28;20206;-89
2020/12/25 08:31:12;;;;;;;0.50;0.50;;;-0.50;99.90;;;;;;4970718;28;20302;-89
2020/12/25 08:33:41;;;;;;;0.50;0.50;;;-2.20;99.90;;;;;;4970061;28;20210;-89
2020/12/25 08:36:09;;;;;;;0.50;0.50;;;-0.60;99.90;;;;;;4970541;28;20207;-89
2020/12/25 08:38:40;;;;;;;0.50;0.50;;;-0.50;99.90;;;;;;4970442;28;20199;-89
2020/12/25 08:41:10;;;;;;;0.50;0.50;;;-0.80;99.90;;;;;;4972641;28;20222;-89
2020/12/25 08:43:39;;;;;;;0.50;0.50;;;-0.40;99.90;;;;;;4976735;28;20210;-88
2020/12/25 08:46:06;;;;;;;0.50;0.50;;;-0.20;99.90;;;;;;4976664;28;20218;-88
2020/12/25 08:48:33;;;;;;;0.50;0.50;;;-0.50;99.90;;;;;;4976697;28;20301;-87
2020/12/25 08:51:07;;;;;;;0.50;0.50;;;0.40;99.90;;;;;;4976728;28;20202;-87
2020/12/25 08:53:36;;;;;;;0.50;0.50;;;-0.50;99.90;;;;;;4976562;28;20261;-88
2020/12/25 08:56:15;;;;;;;0.50;0.50;;;0.10;99.90;;;;;;4976382;28;20222;-88
2020/12/25 08:58:42;;;;;;;0.50;0.50;;;-0.60;99.90;;;;;;4976729;28;20597;-89
2020/12/25 09:01:08;;;;;;;0.50;0.50;;;-0.80;99.90;;;;;;4976443;28;20229;-89
2020/12/25 09:03:39;;;;;;;0.50;0.50;;;-0.10;99.90;;;;;;4976736;28;20294;-89
2020/12/25 09:06:07;;;;;;;0.50;0.50;;;0.00;99.90;;;;;;4976588;28;20953;-89
2020/12/25 09:08:33;;;;;;;0.50;0.50;;;-1.60;99.90;;;;;;4976771;28;20202;-88
2020/12/25 09:10:59;;;;;;;0.50;0.50;;;-0.40;99.90;;;;;;4977072;28;20624;-87
2020/12/25 09:13:26;;;;;;;0.50;0.50;;;-0.10;99.90;;;;;;4976977;28;20648;-88
2020/12/25 09:15:52;;;;;;;0.50;0.50;;;1.60;99.90;;;;;;4976392;28;20218;-88
2020/12/25 09:18:18;;;;;;;0.50;0.50;;;0.30;99.90;;;;;;4976295;28;20238;-88
2020/12/25 09:20:45;;;;;;;0.50;0.50;;;0.30;99.90;;;;;;4976452;28;20207;-87
2020/12/25 09:23:12;;;;;;;0.50;0.50;;;0.20;99.90;;;;;;4977179;28;20210;-87
2020/12/25 09:25:38;;;;;;;0.50;0.50;;;0.50;99.90;;;;;;4975238;28;20211;-88
2020/12/25 09:28:05;;;;;;;0.50;0.50;;;-0.40;99.90;;;;;;4976853;28;20459;-88
2020/12/25 09:30:31;;;;;;;0.50;0.50;;;0.20;99.90;;;;;;4976826;28;20265;-87
2020/12/25 09:32:57;;;;;;;0.50;0.50;;;0.20;99.90;;;;;;4977198;28;20688;-88
2020/12/25 09:35:23;;;;;;;0.50;0.50;;;1.40;99.90;;;;;;4976874;28;20217;-88
2020/12/25 09:37:50;;;;;;;0.50;0.50;;;0.50;99.90;;;;;;4977042;28;20256;-88
2020/12/25 09:40:25;;;;;;;0.50;0.50;;;0.90;99.90;;;;;;4976709;28;20211;-87
2020/12/25 09:42:54;;;;;;;0.50;0.50;;;0.60;99.90;;;;;;4976652;28;20538;-89
2020/12/25 09:45:20;;;;;;;0.50;0.50;;;0.50;99.90;;;;;;4976368;28;20237;-88
2020/12/25 09:47:48;;;;;;;0.50;0.50;;;0.20;99.90;;;;;;4976310;28;20269;-88
2020/12/25 09:50:16;;;;;;;0.50;0.50;;;0.60;99.90;;;;;;4977046;28;20485;-88
2020/12/25 09:52:43;;;;;;;0.50;0.50;;;0.50;99.90;;;;;;4974806;28;20947;-88
2020/12/25 09:55:09;;;;;;;0.50;0.50;;;0.70;99.90;;;;;;4973039;28;20859;-89
2020/12/25 09:57:39;;;;;;;0.50;0.50;;;0.70;99.90;;;;;;4973138;28;20478;-88
2020/12/25 10:00:09;;;;;;;0.50;0.50;;;0.90;99.90;;;;;;4973031;28;20406;-89
2020/12/25 10:02:35;;;;;;;0.50;0.50;;;1.10;99.90;;;;;;4974085;28;20227;-88
2020/12/25 10:05:02;;;;;;;0.50;0.50;;;0.70;99.90;;;;;;4973252;28;20674;-87
2020/12/25 10:07:28;;;;;;;0.50;0.50;;;0.80;99.90;;;;;;4974694;28;20598;-88
2020/12/25 10:09:55;;;;;;;0.50;0.50;;;0.90;99.90;;;;;;4974430;28;20637;-88
2020/12/25 10:12:22;;;;;;;0.50;0.50;;;1.00;99.90;;;;;;4974770;28;20214;-87
2020/12/25 10:14:49;;;;;;;0.50;0.50;;;1.00;99.90;;;;;;4974709;28;20211;-87
2020/12/25 10:17:15;;;;;;;0.50;0.50;;;1.10;99.90;;;;;;4975460;28;20293;-87
2020/12/25 10:19:41;;;;;;;0.50;0.50;;;1.20;99.90;;;;;;4975092;28;20199;-88
2020/12/25 10:22:11;;;;;;;0.50;0.50;;;1.20;99.90;;;;;;4973794;28;20231;-88
2020/12/25 10:24:37;;;;;;;0.50;0.50;;;1.40;99.90;;;;;;4975211;28;20210;-88
2020/12/25 10:27:03;;;;;;;0.50;0.50;;;1.20;99.90;;;;;;4974681;28;20207;-88
2020/12/25 10:29:31;;;;;;;0.50;0.50;;;1.20;99.90;;;;;;4975157;28;20246;-87
2020/12/25 10:32:01;;;;;;;0.50;0.50;;;1.10;99.90;;;;;;4974680;28;20250;-89
2020/12/25 10:34:27;;;;;;;0.50;0.50;;;1.10;99.90;;;;;;4974711;28;20199;-89
2020/12/25 10:36:54;;;;;;;0.50;0.50;;;1.40;99.90;;;;;;4974080;28;20203;-88
2020/12/25 10:39:20;;;;;;;0.50;0.50;;;1.00;99.90;;;;;;4974806;28;20217;-89
2020/12/25 10:41:49;;;;;;;0.50;0.50;;;1.40;99.90;;;;;;4974548;28;20242;-87
2020/12/25 10:44:18;;;;;;;0.50;0.50;;;1.00;99.90;;;;;;4974677;28;20230;-86
2020/12/25 10:46:47;;;;;;;0.50;0.50;;;1.70;99.90;;;;;;4971272;28;20196;-87
2020/12/25 10:49:14;;;;;;;0.55;0.55;;;1.00;99.90;;;;;;4973684;28;20203;-88
2020/12/25 10:51:44;;;;;;;0.50;0.50;;;1.10;99.90;;;;;;4974620;28;20210;-88
2020/12/25 10:54:11;;;;;;;0.50;0.50;;;1.10;99.90;;;;;;4968715;28;20634;-88
2020/12/25 10:56:37;;;;;;;0.50;0.50;;;1.20;99.90;;;;;;4965563;28;20211;-88
2020/12/25 10:59:03;;;;;;;0.50;0.50;;;0.90;99.90;;;;;;4968214;28;20199;-88
2020/12/25 11:01:31;;;;;;;0.50;0.50;;;1.50;99.90;;;;;;4967138;28;20223;-85
2020/12/25 11:03:58;;;;;;;0.50;0.50;;;1.40;99.90;;;;;;4963219;28;20195;-87
2020/12/25 11:06:32;;;;;;;0.50;0.50;;;1.60;99.90;;;;;;4968765;28;20214;-89
2020/12/25 11:09:05;;;;;;;0.50;0.50;;;2.50;99.90;;;;;;4972790;28;20210;-90
2020/12/25 11:11:42;;;;;;;0.50;0.50;;;1.70;99.90;;;;;;4962704;28;20209;-88
2020/12/25 11:14:09;;;;;;;0.50;0.50;;;2.00;99.90;;;;;;4959337;28;20219;-90
2020/12/25 11:16:37;;;;;;;0.50;0.50;;;2.30;99.90;;;;;;4963147;28;20206;-89
2020/12/25 11:19:07;;;;;;;0.50;0.50;;;2.30;99.90;;;;;;4972015;28;20242;-88
2020/12/25 11:21:37;;;;;;;0.50;0.50;;;1.00;99.90;;;;;;4973230;28;20223;-88
2020/12/25 11:24:05;;;;;;;0.55;0.55;;;5.10;99.90;;;;;;4974382;28;20235;-88
2020/12/25 11:26:35;;;;;;;0.40;0.40;;;2.80;99.90;;;;;;4973731;28;20455;-88
2020/12/25 11:29:04;;;;;;;0.50;0.50;;;3.60;99.90;;;;;;4973924;28;20957;-89
2020/12/25 11:31:31;;;;;;;0.50;0.50;;;4.90;99.90;;;;;;4974155;28;20213;-89
2020/12/25 11:33:57;;;;;;;0.55;0.55;;;5.40;99.90;;;;;;4959704;28;20208;-89
2020/12/25 11:36:25;;;;;;;0.50;0.50;;;4.10;99.90;;;;;;4959134;28;20200;-89
2020/12/25 11:38:53;;;;;;;0.50;0.50;;;4.10;99.90;;;;;;4953872;29;20352;-87
2020/12/25 11:41:21;;;;;;;0.60;0.60;;;6.40;99.90;;;;;;4958077;28;20235;-89
2020/12/25 11:43:49;;;;;;;0.60;0.60;;;4.40;99.90;;;;;;4973170;28;20290;-89
2020/12/25 11:46:15;;;;;;;0.60;0.60;;;4.10;99.90;;;;;;4973600;28;20206;-89
2020/12/25 11:48:43;;;;;;;0.60;0.60;;;4.90;99.90;;;;;;4974134;28;20301;-89
2020/12/25 11:51:09;;;;;;;0.60;0.60;;;5.00;99.90;;;;;;4970425;28;20208;-89
2020/12/25 11:53:37;;;;;;;0.60;0.60;;;5.30;99.90;;;;;;4961709;28;20265;-89
2020/12/25 11:56:04;;;;;;;0.50;0.50;;;4.40;99.90;;;;;;4962768;28;20227;-90
2020/12/25 11:58:31;;;;;;;0.60;0.60;;;4.70;99.90;;;;;;4969022;28;20213;-88
2020/12/25 12:00:59;;;;;;;0.50;0.50;;;4.50;99.90;;;;;;4957714;28;20243;-89
2020/12/25 12:03:26;;;;;;;0.52;0.52;;;4.00;99.90;;;;;;4967714;28;20553;-88
2020/12/25 12:05:55;;;;;;;0.60;0.60;;;4.50;99.90;;;;;;4963676;28;20663;-90
2020/12/25 12:08:23;;;;;;;0.60;0.60;;;4.60;99.90;;;;;;4960213;28;20828;-89
2020/12/25 12:10:51;;;;;;;0.57;0.57;;;5.00;99.90;;;;;;4969861;28;20241;-88
2020/12/25 12:13:18;;;;;;;0.50;0.50;;;4.60;99.90;;;;;;4958761;28;20195;-88
2020/12/25 12:15:45;;;;;;;0.57;0.57;;;4.50;99.90;;;;;;4970881;28;20199;-88
2020/12/25 12:18:14;;;;;;;0.60;0.60;;;5.00;99.90;;;;;;4964735;28;20234;-89
2020/12/25 12:20:42;;;;;;;0.50;0.50;;;4.60;99.90;;;;;;4968837;28;20199;-89
2020/12/25 12:23:09;;;;;;;0.60;0.60;;;4.00;99.90;;;;;;4955136;28;20223;-89
2020/12/25 12:25:35;;;;;;;0.60;0.60;;;4.70;99.90;;;;;;4968841;28;20274;-89
2020/12/25 12:28:04;;;;;;;0.60;0.60;;;3.90;99.90;;;;;;4965576;28;20214;-88
2020/12/25 12:30:34;;;;;;;0.60;0.60;;;4.10;99.90;;;;;;4967982;28;20203;-88
2020/12/25 12:33:00;;;;;;;0.50;0.50;;;5.00;99.90;;;;;;4968672;28;20208;-88
2020/12/25 12:35:27;;;;;;;0.60;0.60;;;4.10;99.90;;;;;;4969437;28;20257;-90
2020/12/25 12:37:53;;;;;;;0.52;0.52;;;4.30;99.90;;;;;;4972804;28;20203;-89
2020/12/25 12:40:20;;;;;;;0.50;0.50;;;4.60;99.90;;;;;;4972523;28;20295;-90
2020/12/25 12:42:46;;;;;;;0.60;0.60;;;4.60;99.90;;;;;;4972732;28;20314;-87
2020/12/25 12:45:13;;;;;;;0.60;0.60;;;4.10;99.90;;;;;;4968830;28;20663;-89
2020/12/25 12:47:42;;;;;;;0.50;0.50;;;4.30;99.90;;;;;;4961101;28;20281;-90
2020/12/25 12:50:09;;;;;;;0.50;0.50;;;4.60;99.90;;;;;;4960175;28;20212;-90
2020/12/25 12:52:38;;;;;;;0.60;0.60;;;4.00;99.90;;;;;;4967460;28;20199;-89
2020/12/25 12:55:07;;;;;;;0.50;0.50;;;4.50;99.90;;;;;;4971651;28;20905;-88
2020/12/25 12:57:33;;;;;;;0.50;0.50;;;4.20;99.90;;;;;;4964983;28;20717;-88
2020/12/25 12:59:59;;;;;;;0.60;0.60;;;4.10;99.90;;;;;;4960897;28;20568;-87